createdAt,value
2018-12-17T00:01:39.719Z,98974.28
2018-12-17T00:03:46.839Z,98968.79
2018-12-17T00:05:53.747Z,98973.47
2018-12-17T00:08:01.068Z,98968.27
2018-12-17T00:10:08.110Z,98970.38
2018-12-17T00:12:16.718Z,98976.29
2018-12-17T00:14:23.836Z,98974.57
2018-12-17T00:16:30.714Z,98976.82
2018-12-17T00:18:38.316Z,98982.78
2018-12-17T00:20:45.315Z,98969.59
2018-12-17T00:22:52.235Z,98967.55
2018-12-17T00:24:59.099Z,98966.50
2018-12-17T00:27:05.902Z,98970.42
2018-12-17T00:29:12.666Z,98965.52
2018-12-17T00:31:19.768Z,98961.19
2018-12-17T00:33:26.919Z,98962.23
2018-12-17T00:35:33.562Z,98970.82
2018-12-17T00:37:40.174Z,98970.22
2018-12-17T00:39:47.322Z,98961.91
2018-12-17T00:41:54.125Z,98964.52
2018-12-17T00:44:00.870Z,98967.38
2018-12-17T00:46:07.873Z,98965.53
2018-12-17T00:48:14.738Z,98962.52
2018-12-17T00:50:21.589Z,98964.66
2018-12-17T00:52:28.327Z,98963.77
2018-12-17T00:54:35.361Z,98970.72
2018-12-17T00:56:42.215Z,98990.27
2018-12-17T00:58:49.179Z,98989.09
2018-12-17T01:00:56.121Z,98993.09
2018-12-17T01:03:02.856Z,98984.97
2018-12-17T01:05:10.002Z,98988.40
2018-12-17T01:07:18.921Z,98986.75
2018-12-17T01:09:25.954Z,98980.44
2018-12-17T01:11:32.734Z,98980.13
2018-12-17T01:13:39.686Z,98981.66
2018-12-17T01:15:46.314Z,98984.48
2018-12-17T01:17:53.514Z,98980.64
2018-12-17T01:20:00.322Z,98981.92
2018-12-17T01:22:07.334Z,98978.04
2018-12-17T01:24:14.057Z,98981.17
2018-12-17T01:26:21.639Z,98972.84
2018-12-17T01:28:28.357Z,98980.44
2018-12-17T01:30:35.431Z,98988.42
2018-12-17T01:32:42.835Z,98997.78
2018-12-17T01:34:50.653Z,98990.11
2018-12-17T01:36:57.883Z,98988.70
2018-12-17T01:39:05.019Z,98989.75
2018-12-17T01:41:11.667Z,98985.48
2018-12-17T01:43:18.200Z,98981.88
2018-12-17T01:45:25.103Z,98975.64
2018-12-17T01:47:31.709Z,98976.81
2018-12-17T01:49:38.492Z,98984.20
2018-12-17T01:51:45.343Z,98981.70
2018-12-17T01:53:52.146Z,98977.66
2018-12-17T01:55:59.081Z,98982.44
2018-12-17T01:58:05.950Z,98987.33
2018-12-17T02:00:12.771Z,98996.36
2018-12-17T02:02:19.519Z,98989.98
2018-12-17T02:04:26.278Z,98990.81
2018-12-17T02:06:33.080Z,98986.75
2018-12-17T02:08:40.021Z,98984.88
2018-12-17T02:10:46.867Z,98976.45
2018-12-17T02:12:53.883Z,98976.51
2018-12-17T02:15:00.607Z,98986.23
2018-12-17T02:17:07.456Z,98975.32
2018-12-17T02:19:14.576Z,98977.20
2018-12-17T02:21:21.269Z,98983.88
2018-12-17T02:23:28.403Z,98972.53
2018-12-17T02:25:35.092Z,98965.55
2018-12-17T02:27:41.971Z,98957.58
2018-12-17T02:29:48.733Z,98960.06
2018-12-17T02:31:55.585Z,98958.19
2018-12-17T02:34:02.382Z,98953.91
2018-12-17T02:36:09.392Z,98954.06
2018-12-17T02:38:16.145Z,98949.17
2018-12-17T02:40:23.290Z,98951.42
2018-12-17T02:42:30.028Z,98957.02
2018-12-17T02:44:36.894Z,98962.42
2018-12-17T02:46:43.786Z,98960.16
2018-12-17T02:48:50.736Z,98961.28
2018-12-17T02:50:57.429Z,98973.31
2018-12-17T02:53:04.433Z,98969.17
2018-12-17T02:55:11.183Z,98976.67
2018-12-17T02:57:18.198Z,98967.66
2018-12-17T02:59:25.429Z,98969.48
2018-12-17T03:01:32.472Z,98963.81
2018-12-17T03:03:39.278Z,98975.09
2018-12-17T03:05:46.133Z,98962.56
2018-12-17T03:07:53.018Z,98972.84
2018-12-17T03:10:00.165Z,98967.13
2018-12-17T03:12:07.167Z,98968.02
2018-12-17T03:14:14.033Z,98969.63
2018-12-17T03:16:21.598Z,98975.11
2018-12-17T03:18:28.501Z,98980.83
2018-12-17T03:20:35.247Z,98967.50
2018-12-17T03:22:42.176Z,98960.02
2018-12-17T03:24:49.174Z,98953.99
2018-12-17T03:26:56.345Z,98960.39
2018-12-17T03:29:03.214Z,98961.27
2018-12-17T03:31:10.029Z,98950.39
2018-12-17T03:33:17.078Z,98959.25
2018-12-17T03:35:23.862Z,98960.31
2018-12-17T03:37:30.169Z,98954.00
2018-12-17T03:39:36.992Z,98961.06
2018-12-17T03:41:44.243Z,98952.88
2018-12-17T03:43:51.223Z,98954.45
2018-12-17T03:45:57.989Z,98961.89
2018-12-17T03:48:04.664Z,98957.83
2018-12-17T03:50:11.842Z,98974.27
2018-12-17T03:52:19.444Z,98970.69
2018-12-17T03:54:26.098Z,98969.70
2018-12-17T03:56:33.279Z,98971.94
2018-12-17T03:58:40.268Z,98969.53
2018-12-17T04:00:47.070Z,98975.05
2018-12-17T04:02:53.956Z,98969.62
2018-12-17T04:05:00.933Z,98974.89
2018-12-17T04:07:07.651Z,98963.98
2018-12-17T04:09:14.565Z,98961.82
2018-12-17T04:11:21.177Z,98957.81
2018-12-17T04:13:27.895Z,98975.68
2018-12-17T04:15:35.154Z,98977.81
2018-12-17T04:17:41.889Z,98974.58
2018-12-17T04:19:48.789Z,98975.72
2018-12-17T04:21:55.792Z,98976.47
2018-12-17T04:24:03.305Z,98961.16
2018-12-17T04:26:10.649Z,98976.93
2018-12-17T04:28:17.592Z,98982.34
2018-12-17T04:30:24.521Z,98982.56
2018-12-17T04:32:31.293Z,98988.52
2018-12-17T04:34:38.224Z,98983.73
2018-12-17T04:36:45.503Z,98985.92
2018-12-17T04:38:52.311Z,98984.50
2018-12-17T04:40:59.056Z,98986.30
2018-12-17T04:43:07.102Z,98973.63
2018-12-17T04:45:13.691Z,98986.09
2018-12-17T04:47:20.508Z,98986.83
2018-12-17T04:49:27.477Z,98981.95
2018-12-17T04:51:35.852Z,98987.45
2018-12-17T04:53:42.550Z,98980.08
2018-12-17T04:55:49.219Z,98990.94
2018-12-17T04:57:56.434Z,98987.90
2018-12-17T05:00:04.270Z,98992.22
2018-12-17T05:02:10.929Z,98985.98
2018-12-17T05:04:17.714Z,98996.80
2018-12-17T05:06:24.861Z,98995.14
2018-12-17T05:08:31.612Z,98994.52
2018-12-17T05:10:38.319Z,98996.62
2018-12-17T05:12:45.175Z,99008.13
2018-12-17T05:14:51.929Z,99004.20
2018-12-17T05:16:58.457Z,98998.06
2018-12-17T05:19:05.472Z,98998.27
2018-12-17T05:21:12.287Z,98992.56
2018-12-17T05:23:19.049Z,98984.10
2018-12-17T05:25:25.697Z,98988.46
2018-12-17T05:27:32.721Z,98987.89
2018-12-17T05:29:39.375Z,98984.11
2018-12-17T05:31:46.408Z,98990.28
2018-12-17T05:33:53.988Z,98986.05
2018-12-17T05:36:01.562Z,98977.60
2018-12-17T05:38:08.678Z,98979.81
2018-12-17T05:40:15.683Z,98985.11
2018-12-17T05:42:22.549Z,98987.74
2018-12-17T05:44:29.591Z,98989.09
2018-12-17T05:46:37.034Z,98994.86
2018-12-17T05:48:44.070Z,98995.78
2018-12-17T05:50:50.882Z,98995.48
2018-12-17T05:52:57.648Z,98983.96
2018-12-17T05:55:04.274Z,98983.52
2018-12-17T05:57:10.949Z,98973.97
2018-12-17T05:59:17.747Z,98972.63
2018-12-17T06:01:24.322Z,98972.33
2018-12-17T06:03:31.157Z,98968.58
2018-12-17T06:05:38.744Z,98964.56
2018-12-17T06:07:45.666Z,98966.22
2018-12-17T06:09:52.173Z,98972.24
2018-12-17T06:11:59.133Z,98968.09
2018-12-17T06:14:06.189Z,98972.25
2018-12-17T06:16:12.877Z,98975.48
2018-12-17T06:18:19.979Z,98974.07
2018-12-17T06:20:26.810Z,98963.04
2018-12-17T06:22:33.265Z,98974.03
2018-12-17T06:24:40.117Z,98974.03
2018-12-17T06:26:46.925Z,98977.42
2018-12-17T06:28:53.644Z,98980.91
2018-12-17T06:31:00.322Z,98972.34
2018-12-17T06:33:07.269Z,98972.33
2018-12-17T06:35:14.586Z,98978.05
2018-12-17T06:37:21.317Z,98970.45
2018-12-17T06:39:28.148Z,98975.47
2018-12-17T06:41:35.034Z,98972.34
2018-12-17T06:43:41.888Z,98969.47
2018-12-17T06:45:49.193Z,98960.97
2018-12-17T06:47:55.958Z,98968.25
2018-12-17T06:50:03.118Z,98967.13
2018-12-17T06:52:10.013Z,98975.98
2018-12-17T06:54:16.846Z,98975.77
2018-12-17T06:56:23.701Z,98973.68
2018-12-17T06:58:30.920Z,98969.97
2018-12-17T07:00:37.882Z,98968.19
2018-12-17T07:02:44.550Z,98969.14
2018-12-17T07:04:51.313Z,98970.06
2018-12-17T07:06:58.169Z,98975.26
2018-12-17T07:09:06.098Z,98936.94
2018-12-17T07:11:12.865Z,98977.78
2018-12-17T07:13:19.822Z,98982.88
2018-12-17T07:15:26.528Z,98986.02
2018-12-17T07:17:33.352Z,98975.91
2018-12-17T07:19:40.702Z,98987.26
2018-12-17T07:21:47.502Z,98982.90
2018-12-17T07:23:54.350Z,98985.58
2018-12-17T07:26:01.189Z,98991.64
2018-12-17T07:28:08.074Z,98997.53
2018-12-17T07:30:14.748Z,98989.52
2018-12-17T07:32:21.681Z,98990.11
2018-12-17T07:34:29.179Z,98994.34
2018-12-17T07:36:36.231Z,98999.96
2018-12-17T07:38:43.185Z,98999.13
2018-12-17T07:40:49.838Z,99003.94
2018-12-17T07:42:56.430Z,99009.87
2018-12-17T07:45:05.208Z,99012.66
2018-12-17T07:47:12.073Z,99014.77
2018-12-17T07:49:19.623Z,99012.19
2018-12-17T07:51:27.203Z,99009.05
2018-12-17T07:53:34.309Z,99013.63
2018-12-17T07:55:41.276Z,99023.09
2018-12-17T07:57:47.941Z,99023.01
2018-12-17T07:59:56.867Z,99027.49
2018-12-17T08:02:03.974Z,99020.95
2018-12-17T08:04:11.200Z,99023.34
2018-12-17T08:06:17.855Z,99033.11
2018-12-17T08:08:24.670Z,99026.95
2018-12-17T08:10:32.047Z,99025.09
2018-12-17T08:12:38.774Z,99027.36
2018-12-17T08:14:45.470Z,99021.03
2018-12-17T08:16:52.982Z,99020.50
2018-12-17T08:18:59.714Z,99019.66
2018-12-17T08:21:06.445Z,99019.78
2018-12-17T08:23:13.309Z,99021.95
2018-12-17T08:25:20.046Z,99018.77
2018-12-17T08:27:26.774Z,99015.73
2018-12-17T08:29:33.493Z,99021.83
2018-12-17T08:31:40.517Z,99020.34
2018-12-17T08:33:47.378Z,99023.13
2018-12-17T08:35:54.401Z,99024.57
2018-12-17T08:38:01.258Z,99029.59
2018-12-17T08:40:08.777Z,99026.48
2018-12-17T08:42:15.620Z,99025.02
2018-12-17T08:44:22.419Z,99035.66
2018-12-17T08:46:29.163Z,99036.27
2018-12-17T08:48:35.886Z,99034.31
2018-12-17T08:50:42.869Z,99040.37
2018-12-17T08:52:50.046Z,99035.88
2018-12-17T08:54:57.045Z,99043.91
2018-12-17T08:57:03.886Z,99032.69
2018-12-17T08:59:10.943Z,99041.31
2018-12-17T09:01:17.738Z,99039.66
2018-12-17T09:03:24.780Z,99039.75
2018-12-17T09:05:31.628Z,99041.22
2018-12-17T09:07:38.800Z,99044.19
2018-12-17T09:09:45.790Z,99037.86
2018-12-17T09:11:52.557Z,99046.70
2018-12-17T09:13:59.356Z,99052.62
2018-12-17T09:16:06.391Z,99059.07
2018-12-17T09:18:13.884Z,99045.03
2018-12-17T09:20:20.854Z,99048.36
2018-12-17T09:22:27.758Z,99038.80
2018-12-17T09:24:34.429Z,99039.86
2018-12-17T09:26:41.378Z,99039.34
2018-12-17T09:28:48.547Z,99044.02
2018-12-17T09:30:55.347Z,99044.73
2018-12-17T09:33:02.458Z,99052.72
2018-12-17T09:35:09.203Z,99051.75
2018-12-17T09:37:16.303Z,99059.95
2018-12-17T09:39:23.078Z,99062.84
2018-12-17T09:41:30.198Z,99061.83
2018-12-17T09:43:37.317Z,99054.68
2018-12-17T09:45:44.237Z,99047.83
2018-12-17T09:47:51.125Z,99035.53
2018-12-17T09:49:57.813Z,99033.39
2018-12-17T09:52:04.621Z,99036.19
2018-12-17T09:54:11.567Z,99038.92
2018-12-17T09:56:18.287Z,99043.07
2018-12-17T09:58:25.978Z,99039.75
2018-12-17T10:00:32.594Z,99045.99
2018-12-17T10:02:39.566Z,99042.24
2018-12-17T10:04:46.477Z,99040.27
2018-12-17T10:06:53.348Z,99036.42
2018-12-17T10:09:01.149Z,99037.88
2018-12-17T10:11:08.285Z,99027.40
2018-12-17T10:13:15.961Z,99029.84
2018-12-17T10:15:22.750Z,99035.25
2018-12-17T10:17:29.753Z,99024.56
2018-12-17T10:19:37.059Z,99028.30
2018-12-17T10:21:43.839Z,99029.88
2018-12-17T10:23:50.858Z,99030.58
2018-12-17T10:25:57.514Z,99028.20
2018-12-17T10:28:04.738Z,99027.38
2018-12-17T10:30:11.541Z,99038.68
2018-12-17T10:32:18.511Z,99043.04
2018-12-17T10:34:25.280Z,99040.23
2018-12-17T10:36:32.107Z,99037.94
2018-12-17T10:38:38.992Z,99034.93
2018-12-17T10:40:45.691Z,99044.38
2018-12-17T10:42:52.425Z,99039.10
2018-12-17T10:44:59.259Z,99037.34
2018-12-17T10:47:06.166Z,99042.03
2018-12-17T10:49:12.867Z,99054.52
2018-12-17T10:51:19.579Z,99049.73
2018-12-17T10:53:26.409Z,99055.45
2018-12-17T10:55:33.334Z,99063.45
2018-12-17T10:57:40.326Z,99065.72
2018-12-17T10:59:47.026Z,99076.23
2018-12-17T11:01:59.222Z,99083.70
2018-12-17T11:04:18.130Z,99083.30
2018-12-17T11:06:25.295Z,99089.33
2018-12-17T11:08:32.205Z,99092.98
2018-12-17T11:10:38.839Z,99086.34
2018-12-17T11:12:45.658Z,99051.07
2018-12-17T11:14:52.320Z,99094.36
2018-12-17T11:16:59.015Z,99103.17
2018-12-17T11:19:05.779Z,99107.98
2018-12-17T11:21:12.651Z,99111.41
2018-12-17T11:23:19.869Z,99121.97
2018-12-17T11:25:26.818Z,99130.38
2018-12-17T11:27:33.313Z,99132.47
2018-12-17T11:29:40.134Z,99134.20
2018-12-17T11:31:47.029Z,99149.19
2018-12-17T11:33:54.262Z,99142.34
2018-12-17T11:36:01.127Z,99146.14
2018-12-17T11:38:07.901Z,99139.19
2018-12-17T11:40:14.568Z,99133.77
2018-12-17T11:42:21.631Z,99134.17
2018-12-17T11:44:28.391Z,99145.70
2018-12-17T11:46:35.140Z,99152.44
2018-12-17T11:48:42.407Z,99156.00
2018-12-17T11:50:52.074Z,99164.22
2018-12-17T11:52:58.846Z,99157.66
2018-12-17T11:55:05.630Z,99166.61
2018-12-17T11:57:25.377Z,99169.41
2018-12-17T11:59:32.173Z,99163.58
2018-12-17T12:01:38.833Z,99170.06
2018-12-17T12:03:45.819Z,99168.30
2018-12-17T12:05:52.847Z,99166.12
2018-12-17T12:08:00.395Z,99175.16
2018-12-17T12:10:07.368Z,99182.98
2018-12-17T12:12:14.826Z,99179.84
2018-12-17T12:14:21.800Z,99189.83
2018-12-17T12:16:28.481Z,99185.14
2018-12-17T12:18:34.810Z,99186.69
2018-12-17T12:20:41.806Z,99188.16
2018-12-17T12:22:49.176Z,99195.63
2018-12-17T12:24:55.967Z,99196.09
2018-12-17T12:27:03.078Z,99183.39
2018-12-17T12:29:09.956Z,99183.39
2018-12-17T12:31:16.615Z,99192.54
2018-12-17T12:33:23.230Z,99191.29
2018-12-17T12:35:30.429Z,99187.98
2018-12-17T12:37:37.465Z,99186.58
2018-12-17T12:39:44.336Z,99188.56
2018-12-17T12:41:52.189Z,99186.93
2018-12-17T12:43:59.055Z,99182.86
2018-12-17T12:46:07.218Z,99183.80
2018-12-17T12:48:14.036Z,99185.56
2018-12-17T12:50:21.079Z,99193.72
2018-12-17T12:52:27.732Z,99201.80
2018-12-17T12:54:34.637Z,99211.64
2018-12-17T12:56:41.831Z,99209.61
2018-12-17T12:58:48.514Z,99202.70
2018-12-17T13:00:55.598Z,99206.34
2018-12-17T13:03:02.516Z,99214.06
2018-12-17T13:05:09.277Z,99213.31
2018-12-17T13:07:16.176Z,99196.81
2018-12-17T13:09:24.274Z,99204.06
2018-12-17T13:11:30.782Z,99214.94
2018-12-17T13:13:37.402Z,99213.47
2018-12-17T13:15:44.133Z,99213.33
2018-12-17T13:17:50.939Z,99210.38
2018-12-17T13:19:58.465Z,99203.14
2018-12-17T13:22:05.417Z,99199.34
2018-12-17T13:24:12.305Z,99190.38
2018-12-17T13:26:19.070Z,99189.55
2018-12-17T13:28:26.131Z,99208.39
2018-12-17T13:30:32.674Z,99199.72
2018-12-17T13:32:39.661Z,99206.69
2018-12-17T13:34:46.633Z,99216.04
2018-12-17T13:36:53.706Z,99219.44
2018-12-17T13:39:00.651Z,99229.27
2018-12-17T13:41:07.641Z,99230.17
2018-12-17T13:43:15.039Z,99228.06
2018-12-17T13:45:21.488Z,99219.28
2018-12-17T13:47:28.327Z,99224.48
2018-12-17T13:49:35.249Z,99228.09
2018-12-17T13:51:46.539Z,99236.91
2018-12-17T13:53:55.582Z,99249.05
2018-12-17T13:56:02.598Z,99240.47
2018-12-17T13:58:09.302Z,99230.93
2018-12-17T14:00:16.534Z,99240.95
2018-12-17T14:02:23.527Z,99242.61
2018-12-17T14:04:30.122Z,99260.94
2018-12-17T14:06:37.062Z,99260.81
2018-12-17T14:08:44.918Z,99244.02
2018-12-17T14:10:54.319Z,99263.17
2018-12-17T14:13:28.484Z,99271.97
2018-12-17T14:15:41.769Z,99272.62
2018-12-17T14:17:48.790Z,99262.77
2018-12-17T14:20:00.158Z,99264.36
2018-12-17T14:22:09.472Z,99260.73
2018-12-17T14:24:16.583Z,99273.33
2018-12-17T14:26:23.877Z,99277.58
2018-12-17T14:28:31.644Z,99283.95
2018-12-17T14:30:38.539Z,99287.66
2018-12-17T14:32:45.482Z,99293.61
2018-12-17T14:34:53.836Z,99300.33
2018-12-17T14:37:00.785Z,99307.03
2018-12-17T14:39:08.857Z,99316.74
2018-12-17T14:41:15.707Z,99310.09
2018-12-17T14:43:22.367Z,99314.87
2018-12-17T14:45:29.166Z,99318.03
2018-12-17T14:47:35.930Z,99300.69
2018-12-17T14:49:42.755Z,99312.54
2018-12-17T14:51:49.365Z,99325.80
2018-12-17T14:53:56.036Z,99322.70
2018-12-17T14:56:02.815Z,99312.54
2018-12-17T14:58:09.529Z,99310.64
2018-12-17T15:00:16.373Z,99318.09
2018-12-17T15:02:23.603Z,99317.50
2018-12-17T15:04:30.578Z,99314.45
2018-12-17T15:06:37.128Z,99310.60
2018-12-17T15:08:43.997Z,99321.77
2018-12-17T15:10:51.016Z,99331.80
2018-12-17T15:12:57.957Z,99327.11
2018-12-17T15:15:04.837Z,99327.61
2018-12-17T15:17:11.596Z,99328.25
2018-12-17T15:19:19.024Z,99333.41
2018-12-17T15:21:25.977Z,99321.48
2018-12-17T15:23:32.734Z,99339.84
2018-12-17T15:25:40.013Z,99339.64
2018-12-17T15:27:46.722Z,99345.36
2018-12-17T15:29:54.089Z,99350.78
2018-12-17T15:32:00.723Z,99349.14
2018-12-17T15:34:07.461Z,99344.05
2018-12-17T15:36:14.821Z,99334.45
2018-12-17T15:38:21.818Z,99349.39
2018-12-17T15:40:28.493Z,99339.28
2018-12-17T15:42:40.761Z,99340.84
2018-12-17T15:44:43.944Z,99352.48
2018-12-17T15:46:50.899Z,99365.30
2018-12-17T15:48:57.543Z,99367.55
2018-12-17T15:51:04.394Z,99366.84
2018-12-17T15:53:11.726Z,99354.95
2018-12-17T15:55:18.526Z,99357.27
2018-12-17T15:57:25.218Z,99362.89
2018-12-17T15:59:32.266Z,99369.86
2018-12-17T16:01:38.906Z,99367.14
2018-12-17T16:03:45.767Z,99365.89
2018-12-17T16:05:52.610Z,99374.36
2018-12-17T16:07:59.422Z,99376.64
2018-12-17T16:10:06.281Z,99369.77
2018-12-17T16:12:13.326Z,99373.31
2018-12-17T16:14:20.801Z,99379.66
2018-12-17T16:16:27.746Z,99389.03
2018-12-17T16:18:34.604Z,99388.10
2018-12-17T16:20:41.620Z,99388.28
2018-12-17T16:22:48.720Z,99391.16
2018-12-17T16:24:55.503Z,99380.80
2018-12-17T16:27:02.474Z,99383.09
2018-12-17T16:29:09.329Z,99383.34
2018-12-17T16:31:16.160Z,99383.04
2018-12-17T16:33:29.704Z,99365.88
2018-12-17T16:35:32.318Z,99371.43
2018-12-17T16:37:38.934Z,99368.69
2018-12-17T16:39:45.921Z,99364.61
2018-12-17T16:41:53.023Z,99366.14
2018-12-17T16:44:00.339Z,99365.50
2018-12-17T16:46:07.241Z,99363.78
2018-12-17T16:48:14.202Z,99366.19
2018-12-17T16:50:20.942Z,99359.47
2018-12-17T16:52:27.741Z,99352.16
2018-12-17T16:54:34.777Z,99351.33
2018-12-17T16:56:42.196Z,99352.75
2018-12-17T16:58:49.411Z,99352.38
2018-12-17T17:00:56.431Z,99347.47
2018-12-17T17:03:03.054Z,99345.77
2018-12-17T17:05:09.935Z,99327.51
2018-12-17T17:07:16.782Z,99337.53
2018-12-17T17:09:23.965Z,99327.73
2018-12-17T17:11:30.985Z,99275.09
2018-12-17T17:13:37.886Z,99316.00
2018-12-17T17:15:48.338Z,99314.30
2018-12-17T17:17:55.450Z,99299.27
2018-12-17T17:20:02.172Z,99303.34
2018-12-17T17:22:09.105Z,99297.45
2018-12-17T17:24:16.071Z,99289.98
2018-12-17T17:26:22.916Z,99286.50
2018-12-17T17:28:29.718Z,99284.53
2018-12-17T17:30:36.770Z,99278.58
2018-12-17T17:32:43.355Z,99281.48
2018-12-17T17:34:50.180Z,99276.47
2018-12-17T17:36:57.089Z,99274.63
2018-12-17T17:39:04.737Z,99266.63
2018-12-17T17:41:11.574Z,99267.15
2018-12-17T17:43:18.281Z,99266.27
2018-12-17T17:45:25.384Z,99265.60
2018-12-17T17:47:32.095Z,99264.61
2018-12-17T17:49:38.979Z,99266.19
2018-12-17T17:51:46.321Z,99264.19
2018-12-17T17:53:53.339Z,99266.90
2018-12-17T17:56:00.044Z,99262.36
2018-12-17T17:58:06.770Z,99258.07
2018-12-17T18:00:13.977Z,99251.38
2018-12-17T18:02:20.678Z,99257.77
2018-12-17T18:04:27.725Z,99258.41
2018-12-17T18:06:34.930Z,99266.65
2018-12-17T18:08:41.950Z,99259.75
2018-12-17T18:10:48.678Z,99265.40
2018-12-17T18:12:55.582Z,99262.00
2018-12-17T18:15:02.857Z,99256.88
2018-12-17T18:17:09.795Z,99241.55
2018-12-17T18:19:16.696Z,99243.64
2018-12-17T18:21:23.662Z,99242.38
2018-12-17T18:23:30.408Z,99235.52
2018-12-17T18:25:37.021Z,99239.92
2018-12-17T18:27:44.102Z,99238.89
2018-12-17T18:29:51.009Z,99238.70
2018-12-17T18:31:58.114Z,99238.85
2018-12-17T18:34:04.783Z,99243.88
2018-12-17T18:36:11.525Z,99243.56
2018-12-17T18:38:18.588Z,99245.66
2018-12-17T18:40:25.510Z,99244.84
2018-12-17T18:42:31.962Z,99237.50
2018-12-17T18:44:38.587Z,99242.00
2018-12-17T18:46:45.518Z,99239.13
2018-12-17T18:48:52.522Z,99241.97
2018-12-17T18:50:59.458Z,99248.45
2018-12-17T18:53:06.499Z,99245.62
2018-12-17T18:55:13.072Z,99252.59
2018-12-17T18:57:20.073Z,99250.11
2018-12-17T18:59:27.021Z,99251.47
2018-12-17T19:01:33.937Z,99252.67
2018-12-17T19:03:41.044Z,99250.38
2018-12-17T19:05:48.208Z,99251.51
2018-12-17T19:07:54.926Z,99253.77
2018-12-17T19:10:02.297Z,99255.69
2018-12-17T19:12:09.210Z,99246.15
2018-12-17T19:14:16.003Z,99252.78
2018-12-17T19:16:23.038Z,99247.77
2018-12-17T19:18:29.954Z,99246.63
2018-12-17T19:20:36.682Z,99253.75
2018-12-17T19:22:43.536Z,99249.98
2018-12-17T19:24:50.190Z,99256.16
2018-12-17T19:26:57.114Z,99248.16
2018-12-17T19:29:03.831Z,99253.29
2018-12-17T19:31:10.692Z,99250.12
2018-12-17T19:33:17.678Z,99254.77
2018-12-17T19:35:24.413Z,99248.98
2018-12-17T19:37:31.145Z,99245.66
2018-12-17T19:39:38.166Z,99246.55
2018-12-17T19:41:45.183Z,99240.98
2018-12-17T19:43:51.942Z,99246.56
2018-12-17T19:45:58.838Z,99250.00
2018-12-17T19:48:05.786Z,99255.88
2018-12-17T19:50:12.573Z,99263.34
2018-12-17T19:52:19.461Z,99257.00
2018-12-17T19:54:26.442Z,99260.63
2018-12-17T19:56:33.466Z,99262.81
2018-12-17T19:58:40.385Z,99260.88
2018-12-17T20:00:47.330Z,99274.23
2018-12-17T20:02:54.393Z,99278.14
2018-12-17T20:05:01.422Z,99280.55
2018-12-17T20:07:08.202Z,99285.56
2018-12-17T20:09:15.365Z,99282.91
2018-12-17T20:11:22.540Z,99276.34
2018-12-17T20:13:29.487Z,99280.80
2018-12-17T20:15:36.487Z,99279.11
2018-12-17T20:17:43.093Z,99280.80
2018-12-17T20:19:49.674Z,99292.31
2018-12-17T20:21:56.539Z,99298.34
2018-12-17T20:24:03.208Z,99304.38
2018-12-17T20:26:19.750Z,99303.47
2018-12-17T20:28:26.926Z,99302.33
2018-12-17T20:30:33.723Z,99300.06
2018-12-17T20:32:40.562Z,99302.88
2018-12-17T20:34:47.514Z,99302.51
2018-12-17T20:36:54.095Z,99307.28
2018-12-17T20:39:00.713Z,99298.06
2018-12-17T20:41:07.654Z,99297.35
2018-12-17T20:43:14.386Z,99304.30
2018-12-17T20:45:21.460Z,99300.19
2018-12-17T20:47:28.286Z,99296.34
2018-12-17T20:49:35.365Z,99294.95
2018-12-17T20:51:42.793Z,99298.02
2018-12-17T20:53:49.700Z,99299.67
2018-12-17T20:55:57.213Z,99303.95
2018-12-17T20:58:04.094Z,99309.73
2018-12-17T21:00:11.799Z,99313.67
2018-12-17T21:02:18.873Z,99328.97
2018-12-17T21:04:25.805Z,99328.66
2018-12-17T21:06:32.762Z,99337.41
2018-12-17T21:08:39.807Z,99339.60
2018-12-17T21:10:46.617Z,99347.49
2018-12-17T21:12:53.900Z,99350.66
2018-12-17T21:15:01.313Z,99352.95
2018-12-17T21:17:08.420Z,99356.28
2018-12-17T21:19:15.645Z,99349.83
2018-12-17T21:21:22.953Z,99360.97
2018-12-17T21:23:29.959Z,99363.27
2018-12-17T21:25:36.657Z,99368.95
2018-12-17T21:27:43.683Z,99370.91
2018-12-17T21:29:51.131Z,99372.88
2018-12-17T21:31:57.865Z,99369.02
2018-12-17T21:34:04.546Z,99369.75
2018-12-17T21:36:11.197Z,99375.51
2018-12-17T21:38:17.972Z,99376.39
2018-12-17T21:40:24.714Z,99380.19
2018-12-17T21:42:31.403Z,99380.12
2018-12-17T21:44:38.207Z,99384.48
2018-12-17T21:46:44.937Z,99382.66
2018-12-17T21:48:51.756Z,99376.70
2018-12-17T21:50:58.598Z,99377.77
2018-12-17T21:53:05.846Z,99380.40
2018-12-17T21:55:12.631Z,99393.25
2018-12-17T21:57:19.310Z,99394.17
2018-12-17T21:59:26.246Z,99392.00
2018-12-17T22:01:33.097Z,99401.18
2018-12-17T22:03:40.034Z,99386.27
2018-12-17T22:05:47.076Z,99399.37
2018-12-17T22:07:53.640Z,99394.13
2018-12-17T22:10:01.101Z,99392.84
2018-12-17T22:12:07.956Z,99392.97
2018-12-17T22:14:14.703Z,99397.73
2018-12-17T22:16:21.471Z,99393.07
2018-12-17T22:18:28.256Z,99397.66
2018-12-17T22:20:35.604Z,99398.49
2018-12-17T22:22:42.607Z,99354.33
2018-12-17T22:24:49.334Z,99399.68
2018-12-17T22:26:55.996Z,99403.77
2018-12-17T22:29:02.731Z,99407.50
2018-12-17T22:31:09.760Z,99397.50
2018-12-17T22:33:19.689Z,99398.45
2018-12-17T22:35:25.920Z,99401.66
2018-12-17T22:37:32.470Z,99398.98
2018-12-17T22:39:39.241Z,99398.78
2018-12-17T22:41:45.786Z,99400.26
2018-12-17T22:43:52.737Z,99391.92
2018-12-17T22:45:59.637Z,99402.40
2018-12-17T22:48:06.393Z,99358.76
2018-12-17T22:50:13.149Z,99405.28
2018-12-17T22:52:19.999Z,99404.42
2018-12-17T22:54:26.853Z,99409.13
2018-12-17T22:56:33.666Z,99404.53
2018-12-17T22:58:42.511Z,99405.25
2018-12-17T23:00:49.425Z,99409.94
2018-12-17T23:02:56.495Z,99410.23
2018-12-17T23:05:03.633Z,99416.11
2018-12-17T23:07:10.482Z,99406.22
2018-12-17T23:09:14.992Z,99406.19
2018-12-17T23:11:31.641Z,99405.30
2018-12-17T23:13:48.237Z,99404.80
2018-12-17T23:16:04.887Z,99400.81
2018-12-17T23:18:09.245Z,99409.64
2018-12-17T23:20:15.817Z,99406.03
2018-12-17T23:22:22.481Z,99415.19
2018-12-17T23:24:29.601Z,99408.42
2018-12-17T23:26:36.513Z,99408.41
2018-12-17T23:28:43.233Z,99406.33
2018-12-17T23:30:49.871Z,99415.30
2018-12-17T23:32:58.867Z,99412.14
2018-12-17T23:35:06.635Z,99411.23
2018-12-17T23:37:13.578Z,99414.50
2018-12-17T23:39:20.717Z,99416.69
2018-12-17T23:41:27.603Z,99424.25
2018-12-17T23:43:34.574Z,99424.30
2018-12-17T23:45:41.262Z,99422.13
2018-12-17T23:47:48.250Z,99418.71
2018-12-17T23:49:55.170Z,99413.84
2018-12-17T23:52:02.250Z,99417.09
2018-12-17T23:54:09.263Z,99416.16
2018-12-17T23:56:17.106Z,99425.35
2018-12-17T23:58:23.986Z,99420.67
